This is the latest recevied weather packets stored in our database for station/object WP3OF-5. If no packets are shown the sender has not sent any weather packets the latest 10 day(s).
| Time | Temp. | Humidity | Pressure | Rain* | Wind** | Luminosity | Snow |
|---|---|---|---|---|---|---|---|
| 1777817450 | 29.44° C | 62% | 1018.7 hPa | 0 mm | - | - | - |
| 1777817145 | 29.44° C | 65% | 1018.7 hPa | 0 mm | - | - | - |
| 1777816843 | 28.89° C | 68% | 1018.6 hPa | 0 mm | - | - | - |
| 1777816540 | 28.89° C | 66% | 1018.5 hPa | 0 mm | - | - | - |
| 1777816237 | 28.89° C | 66% | 1018.7 hPa | 0 mm | - | - | - |
| 1777815935 | 28.89° C | 64% | 1018.6 hPa | 0 mm | - | - | - |
| 1777815632 | 28.89° C | 65% | 1018.5 hPa | 0 mm | - | - | - |
| 1777815329 | 28.33° C | 64% | 1018.7 hPa | 0 mm | - | - | - |
| 1777815026 | 28.89° C | 65% | 1018.8 hPa | 0 mm | - | - | - |
| 1777814723 | 28.89° C | 64% | 1018.7 hPa | 0 mm | - | - | - |
| 1777814419 | 28.89° C | 65% | 1018.6 hPa | 0 mm | - | - | - |
| 1777814117 | 27.78° C | 70% | 1018.4 hPa | 0 mm | - | - | - |
| 1777813813 | 27.78° C | 67% | 1018.4 hPa | 0 mm | - | - | - |
| 1777813510 | 28.33° C | 66% | 1018.5 hPa | 0 mm | - | - | - |
| 1777813209 | 27.78° C | 69% | 1018.5 hPa | 0 mm | - | - | - |
| 1777812906 | 27.22° C | 70% | 1018.7 hPa | 0 mm | - | - | - |
| 1777812602 | 27.22° C | 69% | 1018.5 hPa | 0 mm | - | - | - |
| 1777812299 | 26.67° C | 72% | 1018.7 hPa | 0 mm | - | - | - |
| 1777811997 | 25.56° C | 76% | 1018.4 hPa | 0 mm | - | - | - |
| 1777811696 | 25° C | 77% | 1018.4 hPa | 0 mm | - | - | - |
| 1777811391 | 24.44° C | 84% | 1018.4 hPa | 0 mm | - | - | - |
| 1777811089 | 23.33° C | 87% | 1018.1 hPa | 0 mm | - | - | - |
| 1777810786 | 23.33° C | 87% | 1018 hPa | 0 mm | - | - | - |
| 1777810483 | 23.33° C | 88% | 1018.4 hPa | 0 mm | - | - | - |
| 1777810179 | 22.78° C | 88% | 1018.4 hPa | 0 mm | - | - | - |
* Rain latest hour (hover to see other rain measurements)
** Current wind speed in m/s (hover to see current wind gust speed)